Airfield :
LOGIN :

Register | Disclaimer

   EN    FR    IT 

 










Legend :    VFR   Marginal VFR   IFR   Intensive IFR   Very Intensive IFR
Visi :
Ceiling :
>= 8 km
>= 3000ft
5 to 8 km
1000 to 3000 ft
1500m to 5 km
500 to 1000 ft
800 to 1500m
200 to 500 ft
< 800m
< 200 ft
Symbols :   Thunderstorms  Fog  Heavy snow  Heavy precipitations  Wind > 20 kt
SIGMETs :     Misc.  Thunderstorms  Icing  Turbulence  Mountain Waves  Volcanic Ashes







- Airport Elevation : -15 ft
- IATA code : RTM


EHRD - Rotterdam Zestienhoven

CURRENT METAR :
  • 190655Z AUTO 13003KT 8000 NSC 14/12 Q1009 NOSIG

EXPIRED METARs :
  • 190625Z AUTO VRB02KT 7000 NSC 13/13 Q1009 TEMPO 3000 BR
  • 190555Z AUTO 12003KT 6000 NSC 13/13 Q1009 TEMPO 3000 BR
  • 190525Z AUTO VRB02KT 8000 NSC 13/13 Q1010 TEMPO 0800 BCFG
  • 190455Z AUTO 13002KT 4700 BR NSC 12/12 Q1010 TEMPO 0800 BCFG
  • 190425Z AUTO 14002KT 1000 R24/1900N BR NSC 12/11 Q1010 TEMPO 0600 BCFG

TAF TAF EHRD
Valid from the 19 at 06:00 until the 20 at 12:00 UTC


190450Z 1906/2012 13005KT 3000 MIFG NSC
PROB30
TEMPO 1906/1908 0800 BCFG
BECMG 1909/1912 14011KT CAVOK
BECMG 1917/1920 17011KT BKN040
TEMPO 2002/2012 6000 RA BKN018 FEW020TCU
BECMG 2006/2009 20020G30KT
No reported NOTAMs for that airfield.



MET'MAP, your aeronautical weather chart ! - Copyright ORBIFLY December 2007 - Disclaimer

ORBIFLY MET'MAP TEAM :

Programming & Development : Alexandra Zaïnal
Concept & Development : Baudouin d'Aumeries
Co-Development & Prog : Marc-Olivier Méhu
Technical & hardware support : Manuel Goepfert

Contact : metmap@orbifly.com




SOURCES & CREDITS :

   NOAA